Time;durP1;ratioP1;P1;durP2;ratioP2;P2;SDS_P1;SDS_P2;PMS_P1;PMS_P2;Temp;Humidity;BMP_temperature;BMP_pressure;BME280_temperature;BME280_humidity;BME280_pressure;Samples;Min_cycle;Max_cycle;Signal;HPM_P1;HPM_P2
2023/07/14 00:04:50;;;;;;;0.88;0.88;;;;;;;;;;10194836;28;21239;-75
2023/07/14 00:09:52;;;;;;;0.80;0.80;;;;;;;;;;10176274;28;21120;-75
2023/07/14 00:14:54;;;;;;;1.17;1.17;;;;;;;;;;10199401;28;20937;-75
2023/07/14 00:19:55;;;;;;;0.85;0.70;;;;;;;;;;10204563;28;20744;-73
2023/07/14 00:24:56;;;;;;;1.48;1.10;;;;;;;;;;10208409;28;20298;-75
2023/07/14 00:29:57;;;;;;;2.60;1.27;;;;;;;;;;10204967;28;21438;-74
2023/07/14 00:34:58;;;;;;;0.95;0.95;;;;;;;;;;10195365;28;20227;-74
2023/07/14 00:40:00;;;;;;;0.80;0.80;;;;;;;;;;10176670;28;23168;-73
2023/07/14 00:45:01;;;;;;;0.82;0.82;;;;;;;;;;10182442;28;21119;-74
2023/07/14 00:50:03;;;;;;;0.70;0.70;;;;;;;;;;10206204;28;20220;-75
2023/07/14 00:55:31;;;;;;;2.80;0.90;;;;;;;;;;10191067;28;20213;-74
2023/07/14 01:00:32;;;;;;;0.70;0.70;;;;;;;;;;10178857;28;20246;-76
2023/07/14 01:05:34;;;;;;;0.77;0.77;;;;;;;;;;10192347;28;20204;-70
2023/07/14 01:10:35;;;;;;;0.90;0.90;;;;;;;;;;10179799;28;21101;-76
2023/07/14 01:15:37;;;;;;;0.63;0.63;;;;;;;;;;10196629;28;20331;-76
2023/07/14 01:20:39;;;;;;;1.17;1.08;;;;;;;;;;10188174;28;20519;-72
2023/07/14 01:25:52;;;;;;;0.77;0.77;;;;;;;;;;10199769;28;20608;-72
2023/07/14 01:30:53;;;;;;;1.02;0.85;;;;;;;;;;10202555;28;20220;-72
2023/07/14 01:35:57;;;;;;;1.02;0.98;;;;;;;;;;10176152;28;20220;-73
2023/07/14 01:40:58;;;;;;;0.82;0.82;;;;;;;;;;10199438;28;20231;-73
2023/07/14 01:46:01;;;;;;;0.80;0.80;;;;;;;;;;10197707;28;20250;-73
2023/07/14 01:51:04;;;;;;;1.15;1.00;;;;;;;;;;10204661;28;20458;-75
2023/07/14 01:56:06;;;;;;;0.63;0.63;;;;;;;;;;10189867;28;20761;-73
2023/07/14 02:01:11;;;;;;;2.38;0.82;;;;;;;;;;10192439;28;21233;-74
2023/07/14 02:06:12;;;;;;;1.13;1.10;;;;;;;;;;10186950;28;20216;-74
2023/07/14 02:11:17;;;;;;;2.03;0.90;;;;;;;;;;10181415;28;20235;-73
2023/07/14 02:16:19;;;;;;;1.00;1.00;;;;;;;;;;10207677;28;20356;-73
2023/07/14 02:21:25;;;;;;;1.15;1.15;;;;;;;;;;10200806;28;20217;-75
2023/07/14 02:26:32;;;;;;;0.98;0.98;;;;;;;;;;10188370;28;20974;-76
2023/07/14 02:31:39;;;;;;;0.85;0.70;;;;;;;;;;10181472;28;21051;-72
2023/07/14 02:37:00;;;;;;;0.90;0.90;;;;;;;;;;10196781;28;20660;-74
2023/07/14 02:42:02;;;;;;;1.10;1.00;;;;;;;;;;10203647;28;20400;-72
2023/07/14 02:47:07;;;;;;;0.60;0.60;;;;;;;;;;10197084;28;20258;-74
2023/07/14 02:52:08;;;;;;;1.90;0.80;;;;;;;;;;10191393;28;20232;-73
2023/07/14 02:57:09;;;;;;;0.88;0.88;;;;;;;;;;10180532;28;20213;-76
2023/07/14 03:02:10;;;;;;;0.70;0.70;;;;;;;;;;10200938;28;20217;-73
2023/07/14 03:07:12;;;;;;;1.30;0.73;;;;;;;;;;10201046;28;20224;-72
2023/07/14 03:12:13;;;;;;;0.88;0.88;;;;;;;;;;10206205;28;20702;-72
2023/07/14 03:17:14;;;;;;;0.70;0.70;;;;;;;;;;10202460;28;20215;-74
2023/07/14 03:22:15;;;;;;;1.00;1.00;;;;;;;;;;10185577;28;20234;-74
2023/07/14 03:27:16;;;;;;;0.90;0.90;;;;;;;;;;10204976;28;20225;-73
2023/07/14 03:32:17;;;;;;;1.02;0.80;;;;;;;;;;10176821;28;22528;-75
2023/07/14 03:37:19;;;;;;;0.98;0.75;;;;;;;;;;10194656;28;20228;-74
2023/07/14 03:42:20;;;;;;;1.25;0.95;;;;;;;;;;10182273;28;20224;-74
2023/07/14 03:47:21;;;;;;;1.00;1.00;;;;;;;;;;10198029;28;20208;-74
2023/07/14 03:52:22;;;;;;;0.98;0.98;;;;;;;;;;10178197;28;20737;-75
2023/07/14 03:57:23;;;;;;;2.17;0.98;;;;;;;;;;10195838;28;20702;-74
2023/07/14 04:02:25;;;;;;;0.95;0.95;;;;;;;;;;10190522;28;22154;-73
2023/07/14 04:07:26;;;;;;;1.60;1.42;;;;;;;;;;10167443;28;20718;-74
2023/07/14 04:12:27;;;;;;;2.22;1.00;;;;;;;;;;10188360;28;21053;-74
2023/07/14 04:17:29;;;;;;;1.15;1.10;;;;;;;;;;10200492;28;20591;-74
2023/07/14 04:22:30;;;;;;;1.25;1.25;;;;;;;;;;10198893;28;20228;-72
2023/07/14 04:27:33;;;;;;;1.75;1.20;;;;;;;;;;10196858;28;20216;-72
2023/07/14 04:32:34;;;;;;;3.38;1.30;;;;;;;;;;10200039;28;20488;-74
2023/07/14 04:37:35;;;;;;;1.10;1.10;;;;;;;;;;10202157;28;20204;-74
2023/07/14 04:42:36;;;;;;;1.50;1.40;;;;;;;;;;10201875;28;20723;-76
2023/07/14 04:47:37;;;;;;;4.45;1.65;;;;;;;;;;10187049;28;20322;-71
2023/07/14 04:52:38;;;;;;;1.38;1.38;;;;;;;;;;10203212;28;20223;-74
2023/07/14 04:57:40;;;;;;;1.20;1.20;;;;;;;;;;10173680;28;20220;-74
2023/07/14 05:02:41;;;;;;;1.25;1.20;;;;;;;;;;10199088;28;22393;-72
2023/07/14 05:07:42;;;;;;;1.27;1.27;;;;;;;;;;10179458;28;20976;-73
2023/07/14 05:12:43;;;;;;;1.65;1.55;;;;;;;;;;10203410;28;20226;-73
2023/07/14 05:17:45;;;;;;;1.83;1.10;;;;;;;;;;10198862;28;20323;-73
2023/07/14 05:22:48;;;;;;;2.55;1.67;;;;;;;;;;10176155;28;20339;-75
2023/07/14 05:27:49;;;;;;;2.00;1.88;;;;;;;;;;10157266;28;21305;-74
2023/07/14 05:32:50;;;;;;;1.33;1.23;;;;;;;;;;10191365;28;20223;-73
2023/07/14 05:37:51;;;;;;;1.05;1.05;;;;;;;;;;10175768;28;20306;-72
2023/07/14 05:42:52;;;;;;;1.15;1.15;;;;;;;;;;10205936;28;20231;-74
2023/07/14 05:47:53;;;;;;;1.30;1.13;;;;;;;;;;10200106;28;20216;-72
2023/07/14 05:52:54;;;;;;;0.90;0.90;;;;;;;;;;10196162;28;20236;-73
2023/07/14 05:57:55;;;;;;;1.75;1.05;;;;;;;;;;10191844;28;20575;-74
2023/07/14 06:02:57;;;;;;;1.77;0.70;;;;;;;;;;10205458;28;20220;-73
2023/07/14 06:07:58;;;;;;;1.38;1.00;;;;;;;;;;10200429;28;20286;-72
2023/07/14 06:12:59;;;;;;;4.82;0.80;;;;;;;;;;10200279;28;20278;-77
2023/07/14 06:18:00;;;;;;;1.10;0.90;;;;;;;;;;10204486;28;20208;-75
2023/07/14 06:23:02;;;;;;;0.77;0.60;;;;;;;;;;10201776;28;20224;-72
2023/07/14 06:28:03;;;;;;;1.83;1.67;;;;;;;;;;10202343;28;22545;-72
2023/07/14 06:33:04;;;;;;;2.58;0.60;;;;;;;;;;10192015;28;20823;-73
2023/07/14 06:38:06;;;;;;;0.60;0.60;;;;;;;;;;10197492;28;20864;-73
2023/07/14 06:43:09;;;;;;;0.57;0.57;;;;;;;;;;10189888;28;20315;-73
2023/07/14 06:48:10;;;;;;;1.05;0.93;;;;;;;;;;10200100;28;20226;-75
2023/07/14 06:53:11;;;;;;;0.50;0.50;;;;;;;;;;10201103;28;20227;-72
2023/07/14 06:58:13;;;;;;;1.17;0.80;;;;;;;;;;10178572;28;22988;-74
2023/07/14 07:03:14;;;;;;;0.85;0.68;;;;;;;;;;10187094;28;21171;-72
2023/07/14 07:08:15;;;;;;;0.52;0.52;;;;;;;;;;10197005;28;20229;-74
2023/07/14 07:13:16;;;;;;;0.82;0.82;;;;;;;;;;10205260;28;20220;-76
2023/07/14 07:18:25;;;;;;;1.58;0.60;;;;;;;;;;10206898;28;20224;-73
2023/07/14 07:23:26;;;;;;;1.10;1.00;;;;;;;;;;10191799;28;20217;-73
2023/07/14 07:28:27;;;;;;;0.73;0.73;;;;;;;;;;10211174;28;21067;-71
2023/07/14 07:33:28;;;;;;;0.80;0.80;;;;;;;;;;10208787;28;20231;-74
2023/07/14 07:38:29;;;;;;;3.58;1.02;;;;;;;;;;10213755;28;20223;-74
2023/07/14 07:43:31;;;;;;;1.77;0.88;;;;;;;;;;10212957;28;20293;-73
2023/07/14 07:48:32;;;;;;;1.15;0.90;;;;;;;;;;10211836;28;20304;-75
2023/07/14 07:53:33;;;;;;;0.88;0.88;;;;;;;;;;10200086;28;20370;-75
2023/07/14 07:58:34;;;;;;;0.90;0.90;;;;;;;;;;10211598;28;20216;-76
2023/07/14 08:03:36;;;;;;;1.00;1.00;;;;;;;;;;10200512;28;22240;-76
2023/07/14 08:08:37;;;;;;;1.50;0.98;;;;;;;;;;10200317;28;20228;-75
2023/07/14 08:13:39;;;;;;;2.60;0.90;;;;;;;;;;10205163;28;20226;-75
2023/07/14 08:18:40;;;;;;;3.53;0.90;;;;;;;;;;10188433;28;20247;-74
2023/07/14 08:23:41;;;;;;;0.85;0.70;;;;;;;;;;10205117;28;21206;-75
2023/07/14 08:28:42;;;;;;;2.95;0.93;;;;;;;;;;10197501;28;20215;-75
2023/07/14 08:33:44;;;;;;;3.25;0.90;;;;;;;;;;10194422;28;20877;-73
2023/07/14 08:38:45;;;;;;;2.22;1.20;;;;;;;;;;10185607;28;20220;-73
2023/07/14 08:43:55;;;;;;;1.08;0.60;;;;;;;;;;10188820;28;20653;-74
2023/07/14 08:49:12;;;;;;;1.48;0.70;;;;;;;;;;10164353;28;20863;-75
2023/07/14 08:54:17;;;;;;;2.80;0.90;;;;;;;;;;10196535;28;20678;-73
2023/07/14 08:59:31;;;;;;;3.53;1.05;;;;;;;;;;10187621;28;21743;-73
2023/07/14 09:04:35;;;;;;;0.95;0.80;;;;;;;;;;10181442;28;20769;-73
2023/07/14 09:09:38;;;;;;;2.38;0.75;;;;;;;;;;10192215;28;20288;-73
2023/07/14 09:14:51;;;;;;;4.57;0.80;;;;;;;;;;10196791;28;20420;-73
2023/07/14 09:20:11;;;;;;;1.52;0.80;;;;;;;;;;10183332;28;20212;-73
2023/07/14 09:25:18;;;;;;;0.93;0.60;;;;;;;;;;10184773;28;22171;-72
2023/07/14 09:30:21;;;;;;;0.70;0.70;;;;;;;;;;10193181;28;22131;-74
2023/07/14 09:35:24;;;;;;;0.50;0.50;;;;;;;;;;10189277;28;20197;-73
2023/07/14 09:40:31;;;;;;;0.50;0.50;;;;;;;;;;10200107;28;20708;-73
2023/07/14 09:45:33;;;;;;;0.77;0.60;;;;;;;;;;10201764;28;20226;-75
2023/07/14 09:50:37;;;;;;;0.98;0.85;;;;;;;;;;10188144;28;20878;-75
2023/07/14 09:55:52;;;;;;;0.75;0.60;;;;;;;;;;10185358;28;20223;-75
2023/07/14 10:00:55;;;;;;;0.85;0.85;;;;;;;;;;10184709;28;20227;-75
2023/07/14 10:06:03;;;;;;;1.20;0.60;;;;;;;;;;10202336;28;20440;-72
2023/07/14 10:11:22;;;;;;;0.45;0.45;;;;;;;;;;10200488;28;20239;-74
2023/07/14 10:16:24;;;;;;;0.60;0.60;;;;;;;;;;10179254;28;20316;-74
2023/07/14 10:21:27;;;;;;;0.70;0.70;;;;;;;;;;10196257;28;22222;-75
2023/07/14 10:26:30;;;;;;;2.20;0.80;;;;;;;;;;10207216;28;20298;-74
2023/07/14 10:31:40;;;;;;;0.90;0.90;;;;;;;;;;10210894;28;20679;-73
2023/07/14 10:36:43;;;;;;;0.85;0.60;;;;;;;;;;10211147;28;20893;-76
2023/07/14 10:41:48;;;;;;;0.47;0.47;;;;;;;;;;10182611;28;20522;-72
2023/07/14 10:46:51;;;;;;;0.60;0.60;;;;;;;;;;10188693;28;20264;-76
2023/07/14 10:51:55;;;;;;;1.63;0.70;;;;;;;;;;10202132;28;20236;-73
2023/07/14 10:57:03;;;;;;;2.75;0.70;;;;;;;;;;10226821;28;20631;-73
2023/07/14 11:02:10;;;;;;;0.55;0.50;;;;;;;;;;10306591;28;20217;-73
2023/07/14 11:07:18;;;;;;;0.73;0.73;;;;;;;;;;10310072;28;20235;-74
2023/07/14 11:12:33;;;;;;;0.68;0.68;;;;;;;;;;10331622;28;20216;-74
2023/07/14 11:17:37;;;;;;;1.05;0.70;;;;;;;;;;10331331;28;20239;-75
2023/07/14 11:22:42;;;;;;;0.60;0.60;;;;;;;;;;10320245;28;20223;-74
2023/07/14 11:27:51;;;;;;;0.80;0.80;;;;;;;;;;10316888;28;20212;-74
2023/07/14 11:32:52;;;;;;;0.75;0.75;;;;;;;;;;10329025;28;20235;-74
2023/07/14 11:38:00;;;;;;;0.63;0.63;;;;;;;;;;10329437;28;20488;-74
2023/07/14 11:43:01;;;;;;;0.52;0.52;;;;;;;;;;10312233;28;20231;-74
2023/07/14 11:48:03;;;;;;;2.15;0.75;;;;;;;;;;10333260;28;20638;-74
2023/07/14 11:53:10;;;;;;;0.50;0.50;;;;;;;;;;10313340;28;20597;-75
2023/07/14 11:58:28;;;;;;;0.65;0.65;;;;;;;;;;10329125;28;20216;-73
2023/07/14 12:03:32;;;;;;;0.90;0.90;;;;;;;;;;10335552;28;20608;-76
2023/07/14 12:08:38;;;;;;;0.60;0.60;;;;;;;;;;10327744;28;20251;-73
2023/07/14 12:13:40;;;;;;;0.63;0.63;;;;;;;;;;10321187;28;20243;-73
2023/07/14 12:18:57;;;;;;;0.80;0.80;;;;;;;;;;10336683;28;20297;-74
2023/07/14 12:24:00;;;;;;;0.95;0.80;;;;;;;;;;10311556;28;20220;-74
2023/07/14 12:29:04;;;;;;;0.60;0.60;;;;;;;;;;10276551;28;20242;-74
2023/07/14 12:34:06;;;;;;;3.20;1.15;;;;;;;;;;10290413;28;20283;-74
2023/07/14 12:39:08;;;;;;;0.65;0.65;;;;;;;;;;10287661;28;20220;-75
2023/07/14 12:44:19;;;;;;;0.77;0.77;;;;;;;;;;10313325;28;20331;-74
2023/07/14 12:49:31;;;;;;;0.80;0.80;;;;;;;;;;10283790;28;20223;-76
2023/07/14 12:54:32;;;;;;;1.48;0.80;;;;;;;;;;10337571;28;20224;-74
2023/07/14 12:59:33;;;;;;;1.48;0.73;;;;;;;;;;10325254;28;20227;-74
2023/07/14 13:04:35;;;;;;;0.70;0.70;;;;;;;;;;10335283;28;20307;-75
2023/07/14 13:09:36;;;;;;;0.88;0.77;;;;;;;;;;10314014;28;20674;-74
2023/07/14 13:14:44;;;;;;;0.77;0.77;;;;;;;;;;10332059;28;20218;-74
2023/07/14 13:19:46;;;;;;;0.70;0.70;;;;;;;;;;10339601;28;20215;-77
2023/07/14 13:24:56;;;;;;;1.63;0.70;;;;;;;;;;10338894;28;20235;-76
2023/07/14 13:30:01;;;;;;;0.80;0.80;;;;;;;;;;10336598;28;20724;-74
2023/07/14 13:35:06;;;;;;;0.85;0.65;;;;;;;;;;10326952;28;20858;-74
2023/07/14 13:40:21;;;;;;;0.90;0.90;;;;;;;;;;10308145;28;20212;-75
2023/07/14 13:45:42;;;;;;;1.10;1.02;;;;;;;;;;10319867;28;20271;-76
2023/07/14 13:50:43;;;;;;;0.60;0.60;;;;;;;;;;10334958;28;20230;-73
2023/07/14 13:55:44;;;;;;;0.40;0.40;;;;;;;;;;10341246;28;20234;-75
2023/07/14 14:00:46;;;;;;;1.45;0.80;;;;;;;;;;10340436;28;20233;-73
2023/07/14 14:05:47;;;;;;;1.02;1.02;;;;;;;;;;10327967;28;20771;-72
2023/07/14 14:10:49;;;;;;;0.70;0.70;;;;;;;;;;10340417;28;20973;-74
2023/07/14 14:15:50;;;;;;;0.88;0.88;;;;;;;;;;10337276;28;20221;-73
2023/07/14 14:20:55;;;;;;;0.80;0.80;;;;;;;;;;10342372;28;20274;-75
2023/07/14 14:25:57;;;;;;;0.80;0.80;;;;;;;;;;10326104;28;20216;-75
2023/07/14 14:31:00;;;;;;;0.82;0.82;;;;;;;;;;10329626;28;20224;-74
2023/07/14 14:36:01;;;;;;;0.70;0.70;;;;;;;;;;10326661;28;20777;-75
2023/07/14 14:41:04;;;;;;;0.80;0.80;;;;;;;;;;10329122;28;20263;-74
2023/07/14 14:46:05;;;;;;;0.80;0.70;;;;;;;;;;10334507;28;20212;-75
2023/07/14 14:51:06;;;;;;;0.90;0.90;;;;;;;;;;10321230;28;20216;-74
2023/07/14 14:56:27;;;;;;;0.70;0.70;;;;;;;;;;10337645;28;20219;-76
2023/07/14 15:01:31;;;;;;;0.93;0.93;;;;;;;;;;10324588;28;20231;-75
2023/07/14 15:06:32;;;;;;;2.75;0.90;;;;;;;;;;10336118;28;20228;-76
2023/07/14 15:11:33;;;;;;;1.10;1.10;;;;;;;;;;10341619;28;20856;-79
2023/07/14 15:16:36;;;;;;;1.05;1.05;;;;;;;;;;10339655;28;20753;-75
2023/07/14 15:21:38;;;;;;;1.05;1.05;;;;;;;;;;10337940;28;20226;-76
2023/07/14 15:26:41;;;;;;;1.17;1.17;;;;;;;;;;10317220;28;20216;-75
2023/07/14 15:31:44;;;;;;;0.80;0.80;;;;;;;;;;10331325;28;20228;-76
2023/07/14 15:36:45;;;;;;;1.70;1.20;;;;;;;;;;10320338;28;20226;-76
2023/07/14 15:41:46;;;;;;;1.13;1.13;;;;;;;;;;10313835;28;20310;-74
2023/07/14 15:46:47;;;;;;;1.00;1.00;;;;;;;;;;10336537;28;20218;-74
2023/07/14 15:51:48;;;;;;;0.82;0.70;;;;;;;;;;10334250;28;20883;-74
2023/07/14 15:56:49;;;;;;;1.00;1.00;;;;;;;;;;10338485;28;20330;-75
2023/07/14 16:01:50;;;;;;;1.00;1.00;;;;;;;;;;10332449;28;20219;-74
2023/07/14 16:06:53;;;;;;;2.08;0.90;;;;;;;;;;10337216;28;20248;-76
2023/07/14 16:11:54;;;;;;;1.17;1.08;;;;;;;;;;10337416;28;20216;-75
2023/07/14 16:16:55;;;;;;;0.82;0.82;;;;;;;;;;10332658;28;20270;-75
2023/07/14 16:21:56;;;;;;;0.75;0.75;;;;;;;;;;10322798;28;20231;-76
2023/07/14 16:26:57;;;;;;;0.95;0.95;;;;;;;;;;10335738;28;20227;-75
2023/07/14 16:31:58;;;;;;;1.05;0.90;;;;;;;;;;10339551;28;20223;-74
2023/07/14 16:36:59;;;;;;;1.92;0.98;;;;;;;;;;10321515;28;20219;-75
2023/07/14 16:42:00;;;;;;;0.95;0.95;;;;;;;;;;10340040;28;20966;-76
2023/07/14 16:47:04;;;;;;;1.17;1.00;;;;;;;;;;10334351;28;20260;-76
2023/07/14 16:52:34;;;;;;;2.35;1.20;;;;;;;;;;10336871;28;20769;-76
2023/07/14 16:57:36;;;;;;;1.02;1.02;;;;;;;;;;10329687;28;20227;-77
2023/07/14 17:02:42;;;;;;;2.15;1.13;;;;;;;;;;10336797;28;21627;-76
2023/07/14 17:07:43;;;;;;;1.48;0.95;;;;;;;;;;10333322;28;20231;-76
2023/07/14 17:12:44;;;;;;;1.02;1.02;;;;;;;;;;10325433;28;20315;-78
2023/07/14 17:17:45;;;;;;;0.90;0.90;;;;;;;;;;10314756;28;20283;-76
2023/07/14 17:22:47;;;;;;;0.80;0.80;;;;;;;;;;10341190;28;20222;-77
2023/07/14 17:27:52;;;;;;;0.85;0.85;;;;;;;;;;10333574;28;20218;-78
2023/07/14 17:32:53;;;;;;;2.28;1.00;;;;;;;;;;10320132;28;20219;-76
2023/07/14 17:37:55;;;;;;;1.40;1.00;;;;;;;;;;10329387;28;20220;-75
2023/07/14 17:42:57;;;;;;;1.25;1.00;;;;;;;;;;10336936;28;20563;-74
2023/07/14 17:47:58;;;;;;;1.23;0.80;;;;;;;;;;10339984;28;20217;-75
2023/07/14 17:52:59;;;;;;;1.00;1.00;;;;;;;;;;10334583;28;20223;-76
2023/07/14 17:58:00;;;;;;;2.50;0.77;;;;;;;;;;10340917;28;20239;-76
2023/07/14 18:03:03;;;;;;;0.70;0.70;;;;;;;;;;10322636;28;20228;-76
2023/07/14 18:08:10;;;;;;;1.27;0.80;;;;;;;;;;10328796;28;20481;-76
2023/07/14 18:13:13;;;;;;;0.90;0.90;;;;;;;;;;10324779;28;20254;-79
2023/07/14 18:18:15;;;;;;;1.20;1.10;;;;;;;;;;10312983;28;20307;-76
2023/07/14 18:23:22;;;;;;;1.23;0.93;;;;;;;;;;10335239;28;20307;-77
2023/07/14 18:28:26;;;;;;;3.03;0.90;;;;;;;;;;10333480;28;20694;-75
2023/07/14 18:33:28;;;;;;;3.72;1.33;;;;;;;;;;10332407;28;20243;-75
2023/07/14 18:38:30;;;;;;;2.50;1.67;;;;;;;;;;10311899;28;20230;-76
2023/07/14 18:43:33;;;;;;;0.77;0.77;;;;;;;;;;10318505;28;20263;-78
2023/07/14 18:48:35;;;;;;;1.33;1.27;;;;;;;;;;10332489;28;20247;-77
2023/07/14 18:53:36;;;;;;;1.23;1.23;;;;;;;;;;10338091;28;20230;-76
2023/07/14 18:58:38;;;;;;;0.85;0.85;;;;;;;;;;10325319;28;20223;-76
2023/07/14 19:03:39;;;;;;;3.53;1.00;;;;;;;;;;10341248;28;20225;-76
2023/07/14 19:08:40;;;;;;;1.10;1.10;;;;;;;;;;10312871;28;20232;-76
2023/07/14 19:13:41;;;;;;;0.90;0.90;;;;;;;;;;10311947;28;20231;-77
2023/07/14 19:18:42;;;;;;;0.80;0.80;;;;;;;;;;10334782;28;22303;-79
2023/07/14 19:23:44;;;;;;;2.75;1.15;;;;;;;;;;10328370;28;20290;-73
2023/07/14 19:28:46;;;;;;;0.95;0.93;;;;;;;;;;10312909;28;20240;-75
2023/07/14 19:33:50;;;;;;;1.05;1.05;;;;;;;;;;10309027;28;20221;-77
2023/07/14 19:38:51;;;;;;;1.33;1.20;;;;;;;;;;10325850;28;20847;-76
2023/07/14 19:43:53;;;;;;;1.08;1.02;;;;;;;;;;10325845;28;20223;-75
2023/07/14 19:48:54;;;;;;;2.85;1.30;;;;;;;;;;10331571;28;20777;-76
2023/07/14 19:53:59;;;;;;;1.40;1.30;;;;;;;;;;10328281;28;20669;-77
2023/07/14 19:59:00;;;;;;;2.17;1.15;;;;;;;;;;10332686;28;20693;-76
2023/07/14 20:04:01;;;;;;;1.25;0.90;;;;;;;;;;10303775;28;20227;-75
2023/07/14 20:09:06;;;;;;;0.93;0.90;;;;;;;;;;10333896;28;20266;-75
2023/07/14 20:14:25;;;;;;;2.13;0.90;;;;;;;;;;10316807;28;20760;-75
2023/07/14 20:19:26;;;;;;;1.05;0.90;;;;;;;;;;10334676;28;20220;-75
2023/07/14 20:24:27;;;;;;;0.80;0.80;;;;;;;;;;10328187;28;20235;-75
2023/07/14 20:29:30;;;;;;;1.00;1.00;;;;;;;;;;10332606;28;20284;-75
2023/07/14 20:34:37;;;;;;;0.98;0.98;;;;;;;;;;10330771;28;20224;-75
2023/07/14 20:39:38;;;;;;;1.83;0.77;;;;;;;;;;10320959;28;20248;-76
2023/07/14 20:44:39;;;;;;;0.80;0.80;;;;;;;;;;10315950;28;20211;-75
2023/07/14 20:49:40;;;;;;;3.40;0.90;;;;;;;;;;10334426;28;20208;-75
2023/07/14 20:54:41;;;;;;;1.00;1.00;;;;;;;;;;10309290;28;20909;-75
2023/07/14 20:59:43;;;;;;;0.90;0.90;;;;;;;;;;10322875;28;20251;-74
2023/07/14 21:04:44;;;;;;;0.70;0.70;;;;;;;;;;10322300;28;20212;-76
2023/07/14 21:09:45;;;;;;;0.80;0.80;;;;;;;;;;10320215;28;20232;-75
2023/07/14 21:14:47;;;;;;;1.17;1.10;;;;;;;;;;10329670;28;20216;-75
2023/07/14 21:19:48;;;;;;;1.00;0.98;;;;;;;;;;10333806;28;20328;-76
2023/07/14 21:24:49;;;;;;;4.65;1.00;;;;;;;;;;10329351;28;20747;-74
2023/07/14 21:29:50;;;;;;;0.80;0.80;;;;;;;;;;10318868;28;20212;-75
2023/07/14 21:34:52;;;;;;;2.00;1.20;;;;;;;;;;10323898;28;20247;-74
2023/07/14 21:39:53;;;;;;;1.45;1.02;;;;;;;;;;10323935;28;20612;-75
2023/07/14 21:44:55;;;;;;;1.80;1.15;;;;;;;;;;10328628;28;20224;-75
2023/07/14 21:49:56;;;;;;;1.95;1.00;;;;;;;;;;10325594;28;20318;-75
2023/07/14 21:54:57;;;;;;;1.23;1.15;;;;;;;;;;10326237;28;21164;-76
2023/07/14 21:59:58;;;;;;;1.00;1.00;;;;;;;;;;10322906;28;20211;-75
2023/07/14 22:04:59;;;;;;;0.93;0.93;;;;;;;;;;10327138;28;20246;-75
2023/07/14 22:10:00;;;;;;;1.95;1.00;;;;;;;;;;10311395;28;20232;-75
2023/07/14 22:15:01;;;;;;;0.93;0.93;;;;;;;;;;10340935;28;20246;-76
2023/07/14 22:20:03;;;;;;;1.00;0.95;;;;;;;;;;10339300;28;20212;-75
2023/07/14 22:25:05;;;;;;;0.70;0.70;;;;;;;;;;10334817;28;20200;-75
2023/07/14 22:30:06;;;;;;;0.75;0.75;;;;;;;;;;10332649;28;20212;-75
2023/07/14 22:35:10;;;;;;;2.00;1.02;;;;;;;;;;10333927;28;20212;-75
2023/07/14 22:40:15;;;;;;;0.85;0.85;;;;;;;;;;10331332;28;20327;-75
2023/07/14 22:45:17;;;;;;;1.10;0.82;;;;;;;;;;10323159;28;20762;-75
2023/07/14 22:50:18;;;;;;;0.85;0.85;;;;;;;;;;10335753;28;20350;-75
2023/07/14 22:55:20;;;;;;;1.00;1.00;;;;;;;;;;10324568;28;20200;-76
2023/07/14 23:00:22;;;;;;;1.40;0.90;;;;;;;;;;10337304;28;20226;-75
2023/07/14 23:05:23;;;;;;;7.82;1.15;;;;;;;;;;10341654;28;20204;-75
2023/07/14 23:10:24;;;;;;;1.75;1.10;;;;;;;;;;10297303;28;20880;-75
2023/07/14 23:15:26;;;;;;;1.92;1.30;;;;;;;;;;10316602;28;20229;-75
2023/07/14 23:20:27;;;;;;;3.05;1.67;;;;;;;;;;10298605;28;20356;-76
2023/07/14 23:25:29;;;;;;;1.10;1.10;;;;;;;;;;10289273;28;20929;-75
2023/07/14 23:30:30;;;;;;;0.93;0.93;;;;;;;;;;10296011;28;20229;-75
2023/07/14 23:35:31;;;;;;;2.28;0.85;;;;;;;;;;10295172;28;20243;-75
2023/07/14 23:40:33;;;;;;;5.50;1.02;;;;;;;;;;10295082;28;20220;-76
2023/07/14 23:45:35;;;;;;;1.02;1.02;;;;;;;;;;10293015;28;20252;-75
2023/07/14 23:50:37;;;;;;;2.70;1.08;;;;;;;;;;10294808;28;20229;-74
2023/07/14 23:55:38;;;;;;;1.48;0.90;;;;;;;;;;10291217;28;20217;-75
